Time;durP1;ratioP1;P1;durP2;ratioP2;P2;SDS_P1;SDS_P2;PMS_P1;PMS_P2;Temp;Humidity;BMP_temperature;BMP_pressure;BME280_temperature;BME280_humidity;BME280_pressure;Samples;Min_cycle;Max_cycle;Signal;HPM_P1;HPM_P2
2023/04/11 00:01:09;;;;;;;10.07;2.00;;;8.20;99.90;;;;;;5096811;28;20160;-61
2023/04/11 00:03:36;;;;;;;10.63;2.22;;;8.20;99.90;;;;;;5096338;28;20115;-60
2023/04/11 00:06:04;;;;;;;14.73;2.60;;;8.10;99.90;;;;;;5096563;28;20040;-60
2023/04/11 00:08:30;;;;;;;15.60;3.10;;;8.10;99.90;;;;;;5096545;28;20467;-60
2023/04/11 00:10:57;;;;;;;11.35;2.67;;;8.10;99.90;;;;;;5096420;28;20071;-60
2023/04/11 00:13:25;;;;;;;13.32;2.33;;;8.10;99.90;;;;;;5096509;28;20082;-60
2023/04/11 00:15:54;;;;;;;10.57;1.95;;;8.10;99.90;;;;;;5096409;28;20422;-61
2023/04/11 00:18:21;;;;;;;17.20;2.10;;;8.00;99.90;;;;;;5096546;28;20396;-61
2023/04/11 00:20:48;;;;;;;15.32;2.70;;;8.00;99.90;;;;;;5096143;28;20046;-61
2023/04/11 00:23:15;;;;;;;14.65;3.83;;;8.00;99.90;;;;;;5096106;28;20105;-61
2023/04/11 00:25:41;;;;;;;16.05;3.05;;;8.00;99.90;;;;;;5096336;28;20040;-61
2023/04/11 00:28:08;;;;;;;16.05;2.30;;;7.90;99.90;;;;;;5096300;28;20051;-61
2023/04/11 00:30:35;;;;;;;15.15;3.63;;;7.90;99.90;;;;;;5094031;28;20383;-60
2023/04/11 00:33:02;;;;;;;11.30;2.13;;;7.90;99.90;;;;;;5095907;28;20040;-61
2023/04/11 00:35:33;;;;;;;11.90;2.47;;;7.90;99.90;;;;;;5094846;28;20093;-62
2023/04/11 00:38:01;;;;;;;11.68;2.10;;;7.80;99.90;;;;;;5096267;28;20040;-60
2023/04/11 00:40:27;;;;;;;15.13;2.55;;;7.90;99.90;;;;;;5095782;28;20044;-61
2023/04/11 00:42:54;;;;;;;10.95;2.50;;;7.80;99.90;;;;;;5096053;28;20425;-62
2023/04/11 00:45:21;;;;;;;11.15;2.25;;;7.80;99.90;;;;;;5077951;28;20033;-61
2023/04/11 00:47:48;;;;;;;16.48;2.65;;;7.80;99.90;;;;;;5096183;28;20070;-61
2023/04/11 00:50:15;;;;;;;14.30;2.85;;;7.80;99.90;;;;;;5095281;28;20052;-61
2023/04/11 00:52:42;;;;;;;11.43;2.65;;;7.80;99.90;;;;;;5095692;28;20036;-61
2023/04/11 00:55:09;;;;;;;13.05;2.55;;;7.80;99.90;;;;;;5094237;28;20060;-61
2023/04/11 00:57:36;;;;;;;16.65;2.33;;;7.70;99.90;;;;;;5096004;28;20066;-60
2023/04/11 01:00:03;;;;;;;12.57;2.38;;;7.70;99.90;;;;;;5094206;28;20548;-61
2023/04/11 01:02:32;;;;;;;14.90;2.60;;;7.70;99.90;;;;;;5095454;28;20495;-61
2023/04/11 01:04:59;;;;;;;12.60;2.83;;;7.70;99.90;;;;;;5094042;28;20422;-59
2023/04/11 01:07:26;;;;;;;9.77;2.03;;;7.70;99.90;;;;;;5095546;28;20047;-61
2023/04/11 01:09:53;;;;;;;18.30;2.90;;;7.70;99.90;;;;;;5094276;28;20102;-61
2023/04/11 01:12:20;;;;;;;10.77;2.00;;;7.70;99.90;;;;;;5093978;28;20040;-60
2023/04/11 01:14:48;;;;;;;10.40;2.47;;;7.70;99.90;;;;;;5095537;28;20036;-60
2023/04/11 01:17:15;;;;;;;16.75;2.47;;;7.60;99.90;;;;;;5093692;28;20050;-60
2023/04/11 01:19:41;;;;;;;11.30;2.05;;;7.70;99.90;;;;;;5094154;28;20115;-59
2023/04/11 01:22:08;;;;;;;16.83;2.75;;;7.70;99.90;;;;;;5094839;28;20039;-60
2023/04/11 01:24:35;;;;;;;10.27;1.77;;;7.60;99.90;;;;;;5094050;28;20190;-60
2023/04/11 01:27:02;;;;;;;14.02;2.30;;;7.60;99.90;;;;;;5094849;28;20441;-60
2023/04/11 01:29:30;;;;;;;18.83;3.33;;;7.60;99.90;;;;;;5093537;28;20040;-60
2023/04/11 01:31:57;;;;;;;12.25;2.17;;;7.60;99.90;;;;;;5093734;28;20574;-61
2023/04/11 01:34:24;;;;;;;15.50;2.15;;;7.60;99.90;;;;;;5095359;28;20400;-60
2023/04/11 01:36:50;;;;;;;9.82;2.13;;;7.60;99.90;;;;;;5094855;28;20117;-61
2023/04/11 01:39:17;;;;;;;11.43;2.15;;;7.60;99.90;;;;;;5093716;28;20051;-60
2023/04/11 01:41:44;;;;;;;9.88;1.70;;;7.60;99.90;;;;;;5094399;28;20150;-60
2023/04/11 01:44:11;;;;;;;12.20;2.72;;;7.50;99.90;;;;;;5093183;28;20558;-60
2023/04/11 01:46:38;;;;;;;14.52;2.70;;;7.50;99.90;;;;;;5093386;28;20444;-60
2023/04/11 01:49:04;;;;;;;11.52;2.28;;;7.50;99.90;;;;;;5094177;28;20044;-59
2023/04/11 01:51:31;;;;;;;15.48;2.40;;;7.50;99.90;;;;;;5094674;28;20039;-60
2023/04/11 01:53:58;;;;;;;10.73;2.55;;;7.50;99.90;;;;;;5093605;28;20039;-59
2023/04/11 01:56:25;;;;;;;15.68;2.72;;;7.50;99.90;;;;;;5093521;28;20044;-61
2023/04/11 01:58:52;;;;;;;17.25;3.00;;;7.50;99.90;;;;;;5093051;28;20482;-60
2023/04/11 02:01:19;;;;;;;15.30;2.40;;;7.50;99.90;;;;;;5093281;28;20055;-61
2023/04/11 02:03:46;;;;;;;15.20;2.45;;;7.50;99.90;;;;;;5094626;28;20113;-60
2023/04/11 02:06:13;;;;;;;12.52;2.55;;;7.40;99.90;;;;;;5094558;28;20044;-61
2023/04/11 02:08:40;;;;;;;15.95;2.53;;;7.40;99.90;;;;;;5094239;28;20060;-60
2023/04/11 02:11:07;;;;;;;14.60;2.40;;;7.50;99.90;;;;;;5094323;28;20079;-60
2023/04/11 02:13:34;;;;;;;12.13;2.58;;;7.40;99.90;;;;;;5092761;28;20043;-58
2023/04/11 02:16:00;;;;;;;21.45;2.88;;;7.40;99.90;;;;;;5092791;28;20052;-60
2023/04/11 02:18:27;;;;;;;13.65;1.98;;;7.40;99.90;;;;;;5094131;28;20131;-58
2023/04/11 02:20:54;;;;;;;15.32;2.80;;;7.40;99.90;;;;;;5094460;28;20054;-59
2023/04/11 02:23:20;;;;;;;14.07;2.53;;;7.40;99.90;;;;;;5094375;28;20395;-59
2023/04/11 02:25:49;;;;;;;15.20;2.22;;;7.40;99.90;;;;;;5094002;28;20047;-60
2023/04/11 02:28:16;;;;;;;18.70;3.03;;;7.40;99.90;;;;;;5092641;28;20085;-60
2023/04/11 02:30:43;;;;;;;17.85;3.13;;;7.40;99.90;;;;;;5093880;28;20081;-61
2023/04/11 02:33:10;;;;;;;12.90;2.35;;;7.40;99.90;;;;;;5094056;28;20388;-60
2023/04/11 02:35:39;;;;;;;13.98;2.22;;;7.40;99.90;;;;;;5094153;28;20043;-60
2023/04/11 02:38:06;;;;;;;20.60;3.72;;;7.40;99.90;;;;;;5094168;28;20036;-60
2023/04/11 02:40:32;;;;;;;13.13;2.83;;;7.40;99.90;;;;;;5092193;28;20083;-58
2023/04/11 02:43:00;;;;;;;12.57;2.58;;;7.30;99.90;;;;;;5093688;28;20063;-59
2023/04/11 02:45:27;;;;;;;16.17;2.65;;;7.30;99.90;;;;;;5093508;28;20040;-59
2023/04/11 02:47:54;;;;;;;16.77;3.00;;;7.30;99.90;;;;;;5092310;28;20044;-59
2023/04/11 02:50:21;;;;;;;13.25;2.45;;;7.30;99.90;;;;;;5051973;28;20067;-58
2023/04/11 02:52:50;;;;;;;15.63;2.72;;;7.30;99.90;;;;;;5052143;28;20037;-59
2023/04/11 02:55:24;;;;;;;12.80;2.50;;;7.30;99.90;;;;;;5058792;28;20044;-57
2023/04/11 02:57:51;;;;;;;14.93;2.85;;;7.20;99.90;;;;;;5060251;28;20057;-59
2023/04/11 03:00:19;;;;;;;18.90;3.40;;;7.30;99.90;;;;;;5058804;28;20136;-59
2023/04/11 03:02:51;;;;;;;14.07;2.08;;;7.30;99.90;;;;;;5059299;28;20044;-59
2023/04/11 03:05:21;;;;;;;12.30;2.63;;;7.20;99.90;;;;;;5058407;28;20555;-60
2023/04/11 03:07:50;;;;;;;14.93;2.80;;;7.20;99.90;;;;;;5058683;28;20518;-60
2023/04/11 03:10:17;;;;;;;16.83;2.58;;;7.20;99.90;;;;;;5058816;28;20037;-60
2023/04/11 03:12:44;;;;;;;11.90;2.25;;;7.20;99.90;;;;;;5059023;28;20044;-61
2023/04/11 03:15:14;;;;;;;15.23;2.58;;;7.10;99.90;;;;;;5058342;28;20404;-58
2023/04/11 03:17:41;;;;;;;14.52;3.22;;;7.20;99.90;;;;;;5058628;28;20111;-59
2023/04/11 03:20:12;;;;;;;16.17;2.28;;;7.20;99.90;;;;;;5058542;28;20476;-59
2023/04/11 03:22:44;;;;;;;15.32;2.33;;;7.10;99.90;;;;;;5058866;28;20049;-58
2023/04/11 03:25:11;;;;;;;17.55;2.70;;;7.10;99.90;;;;;;5058709;28;20053;-60
2023/04/11 03:27:39;;;;;;;14.80;2.50;;;7.10;99.90;;;;;;5042509;28;20044;-60
2023/04/11 03:30:06;;;;;;;16.48;2.78;;;7.10;99.90;;;;;;5058089;28;20514;-60
2023/04/11 03:32:39;;;;;;;15.95;3.00;;;7.10;99.90;;;;;;5058702;28;20132;-60
2023/04/11 03:35:06;;;;;;;15.02;3.15;;;7.10;99.90;;;;;;5059938;28;20060;-60
2023/04/11 03:37:35;;;;;;;16.15;3.13;;;7.10;99.90;;;;;;5058224;28;20041;-59
2023/04/11 03:40:03;;;;;;;14.98;2.35;;;7.10;99.90;;;;;;5058484;28;20077;-58
2023/04/11 03:42:30;;;;;;;13.82;3.08;;;7.10;99.90;;;;;;5058905;28;20201;-60
2023/04/11 03:44:59;;;;;;;20.85;3.80;;;7.00;99.90;;;;;;5058707;28;20052;-60
2023/04/11 03:47:26;;;;;;;10.95;1.90;;;7.00;99.90;;;;;;5058515;28;20503;-60
2023/04/11 03:49:53;;;;;;;13.63;2.83;;;7.00;99.90;;;;;;5091019;28;20138;-60
2023/04/11 03:52:21;;;;;;;15.60;2.22;;;7.00;99.90;;;;;;5098865;28;20036;-60
2023/04/11 03:54:48;;;;;;;13.55;2.30;;;7.00;99.90;;;;;;5098950;28;20467;-59
2023/04/11 03:57:16;;;;;;;13.23;2.60;;;7.00;99.90;;;;;;5098251;28;20104;-59
2023/04/11 03:59:43;;;;;;;13.65;1.92;;;7.00;99.90;;;;;;5098705;28;20051;-59
2023/04/11 04:02:14;;;;;;;14.48;2.50;;;6.90;99.90;;;;;;5098399;28;20413;-59
2023/04/11 04:04:47;;;;;;;15.38;2.97;;;6.90;99.90;;;;;;5098415;28;20059;-60
2023/04/11 04:07:30;;;;;;;9.30;1.92;;;6.90;99.90;;;;;;5095033;28;20051;-57
2023/04/11 04:10:08;;;;;;;16.10;2.20;;;6.80;99.90;;;;;;5095493;28;20036;-60
2023/04/11 04:12:35;;;;;;;11.50;2.42;;;6.80;99.90;;;;;;5095687;28;20059;-61
2023/04/11 04:15:10;;;;;;;13.45;2.25;;;6.80;99.90;;;;;;5095516;28;20489;-60
2023/04/11 04:17:37;;;;;;;13.73;2.30;;;6.80;99.90;;;;;;5095356;28;20050;-60
2023/04/11 04:20:09;;;;;;;13.98;2.30;;;6.80;99.90;;;;;;5094630;28;20036;-59
2023/04/11 04:22:38;;;;;;;10.65;1.80;;;6.70;99.90;;;;;;5094640;28;20054;-59
2023/04/11 04:25:04;;;;;;;11.52;2.13;;;6.70;99.90;;;;;;5095904;28;20498;-60
2023/04/11 04:27:33;;;;;;;12.75;2.17;;;6.60;99.90;;;;;;5094446;28;20568;-58
2023/04/11 04:30:00;;;;;;;11.85;2.17;;;6.60;99.90;;;;;;5094364;28;20040;-60
2023/04/11 04:32:53;;;;;;;8.77;2.15;;;6.60;99.90;;;;;;5095197;28;20130;-60
2023/04/11 04:35:22;;;;;;;14.77;2.20;;;6.60;99.90;;;;;;5078352;28;20044;-59
2023/04/11 04:37:49;;;;;;;11.05;2.10;;;6.50;99.90;;;;;;5095465;28;20048;-60
2023/04/11 04:40:30;;;;;;;17.08;3.22;;;6.50;99.90;;;;;;5094611;28;20044;-61
2023/04/11 04:43:07;;;;;;;9.60;2.70;;;6.50;99.90;;;;;;5094786;28;20050;-59
2023/04/11 04:45:40;;;;;;;7.88;1.88;;;6.50;99.90;;;;;;5094380;28;20048;-60
2023/04/11 04:48:07;;;;;;;9.80;2.15;;;6.40;99.90;;;;;;5094327;28;20044;-59
2023/04/11 04:50:34;;;;;;;11.45;1.80;;;6.40;99.90;;;;;;5095850;28;20124;-59
2023/04/11 04:53:01;;;;;;;10.20;1.80;;;6.40;99.90;;;;;;5095684;28;20040;-56
2023/04/11 04:55:29;;;;;;;8.02;2.17;;;6.40;99.90;;;;;;5094122;28;20033;-61
2023/04/11 04:57:55;;;;;;;12.82;2.50;;;6.30;99.90;;;;;;5094092;28;20101;-61
2023/04/11 05:00:22;;;;;;;12.00;2.40;;;6.30;99.90;;;;;;5095439;28;20520;-60
2023/04/11 05:02:54;;;;;;;10.57;1.70;;;6.30;99.90;;;;;;5094819;28;20051;-59
2023/04/11 05:05:28;;;;;;;7.80;1.80;;;6.30;99.90;;;;;;5094212;28;20072;-58
2023/04/11 05:07:55;;;;;;;15.52;2.45;;;6.30;99.90;;;;;;5094579;28;20131;-60
2023/04/11 05:10:21;;;;;;;9.98;1.67;;;6.20;99.90;;;;;;5093675;28;20040;-60
2023/04/11 05:12:48;;;;;;;10.65;2.05;;;6.20;99.90;;;;;;5093641;28;20491;-60
2023/04/11 05:15:16;;;;;;;13.63;2.70;;;6.20;99.90;;;;;;5093749;28;20102;-60
2023/04/11 05:17:43;;;;;;;14.15;2.65;;;6.20;99.90;;;;;;5092575;28;20044;-60
2023/04/11 05:20:12;;;;;;;16.73;2.60;;;6.20;99.90;;;;;;5094302;28;20071;-60
2023/04/11 05:22:43;;;;;;;13.90;2.30;;;6.20;99.90;;;;;;5094472;28;20051;-60
2023/04/11 05:25:10;;;;;;;10.50;2.63;;;6.20;99.90;;;;;;5093749;28;20052;-60
2023/04/11 05:27:39;;;;;;;12.10;2.22;;;6.20;99.90;;;;;;5094229;28;20487;-59
2023/04/11 05:30:06;;;;;;;17.55;2.90;;;6.20;99.90;;;;;;5094162;28;20390;-61
2023/04/11 05:32:36;;;;;;;14.15;2.72;;;6.20;99.90;;;;;;5094112;28;20081;-60
2023/04/11 05:35:03;;;;;;;17.85;3.03;;;6.20;99.90;;;;;;5076728;28;20086;-60
2023/04/11 05:37:49;;;;;;;12.55;2.70;;;6.20;99.90;;;;;;5093481;28;20471;-59
2023/04/11 05:40:16;;;;;;;21.30;3.03;;;6.20;99.90;;;;;;5093441;28;20050;-60
2023/04/11 05:42:43;;;;;;;13.60;2.30;;;6.20;99.90;;;;;;5093676;28;20056;-59
2023/04/11 05:45:10;;;;;;;17.25;2.80;;;6.20;99.90;;;;;;5095102;28;20047;-60
2023/04/11 05:47:36;;;;;;;16.40;2.42;;;6.20;99.90;;;;;;5094210;28;20475;-59
2023/04/11 05:50:03;;;;;;;14.85;2.50;;;6.30;99.90;;;;;;5093452;28;20127;-60
2023/04/11 05:52:30;;;;;;;12.80;3.05;;;6.40;99.90;;;;;;5114221;28;20092;-59
2023/04/11 05:54:57;;;;;;;14.73;2.67;;;6.40;99.90;;;;;;5115128;28;20425;-59
2023/04/11 05:57:24;;;;;;;17.80;2.40;;;6.40;99.90;;;;;;5114803;28;20043;-60
2023/04/11 05:59:51;;;;;;;13.18;3.47;;;6.50;99.90;;;;;;5114650;28;20513;-60
2023/04/11 06:02:18;;;;;;;12.15;2.10;;;6.50;99.90;;;;;;5114734;28;20044;-56
2023/04/11 06:04:45;;;;;;;15.38;2.72;;;6.50;99.90;;;;;;5115221;28;20097;-59
2023/04/11 06:07:12;;;;;;;14.63;2.42;;;6.60;99.90;;;;;;5114649;28;20039;-60
2023/04/11 06:09:41;;;;;;;12.05;2.15;;;6.60;99.90;;;;;;5114431;28;20035;-65
2023/04/11 06:12:08;;;;;;;18.63;4.10;;;6.60;99.90;;;;;;5114877;28;20067;-60
2023/04/11 06:14:35;;;;;;;12.20;2.10;;;6.70;99.90;;;;;;5114675;27;20035;-60
2023/04/11 06:17:05;;;;;;;11.68;1.83;;;6.70;99.90;;;;;;5114247;28;20040;-61
2023/04/11 06:19:31;;;;;;;13.15;2.17;;;6.70;99.90;;;;;;5114594;28;20088;-60
2023/04/11 06:21:58;;;;;;;15.07;2.38;;;6.80;99.90;;;;;;5114454;28;20431;-59
2023/04/11 06:24:25;;;;;;;11.65;2.38;;;6.80;99.90;;;;;;5114577;28;20048;-61
2023/04/11 06:26:51;;;;;;;12.50;1.92;;;6.80;99.90;;;;;;5114333;28;20074;-59
2023/04/11 06:29:18;;;;;;;13.27;2.45;;;6.90;99.90;;;;;;5113536;28;20043;-59
2023/04/11 06:31:45;;;;;;;14.57;2.20;;;6.90;99.90;;;;;;5114294;28;20071;-59
2023/04/11 06:34:12;;;;;;;18.67;2.40;;;6.90;99.90;;;;;;5114539;28;20486;-60
2023/04/11 06:36:41;;;;;;;11.90;2.42;;;7.00;99.90;;;;;;5114659;28;20047;-60
2023/04/11 06:39:08;;;;;;;12.43;2.30;;;7.00;99.90;;;;;;5114116;28;20050;-60
2023/04/11 06:41:35;;;;;;;10.43;1.80;;;7.00;99.90;;;;;;5114440;28;20051;-60
2023/04/11 06:44:02;;;;;;;14.85;2.22;;;7.10;99.90;;;;;;5114559;28;20058;-59
2023/04/11 06:46:28;;;;;;;13.15;2.63;;;7.10;99.90;;;;;;5113802;28;20446;-56
2023/04/11 06:48:55;;;;;;;16.05;1.92;;;7.20;99.90;;;;;;5113918;28;20051;-60
2023/04/11 06:51:22;;;;;;;9.35;1.70;;;7.20;99.90;;;;;;5113655;28;20081;-61
2023/04/11 06:53:49;;;;;;;7.63;1.52;;;7.20;99.90;;;;;;5113555;28;20043;-60
2023/04/11 06:56:16;;;;;;;9.90;2.28;;;7.30;99.90;;;;;;5113185;28;20027;-60
2023/04/11 06:58:43;;;;;;;8.30;1.80;;;7.30;99.90;;;;;;5113566;28;20039;-59
2023/04/11 07:01:11;;;;;;;11.45;1.83;;;7.40;99.90;;;;;;5113754;28;20511;-59
2023/04/11 07:03:37;;;;;;;12.00;1.70;;;7.40;99.90;;;;;;5114297;28;20043;-60
2023/04/11 07:06:06;;;;;;;12.35;2.10;;;7.40;99.90;;;;;;5112575;28;20126;-60
2023/04/11 07:08:32;;;;;;;10.68;1.85;;;7.50;99.90;;;;;;5113327;28;20043;-59
2023/04/11 07:10:59;;;;;;;12.27;1.73;;;7.60;99.90;;;;;;5112394;28;20032;-60
2023/04/11 07:13:26;;;;;;;16.90;2.25;;;7.60;99.90;;;;;;5113200;28;20036;-60
2023/04/11 07:15:53;;;;;;;9.98;1.52;;;7.70;99.90;;;;;;5114099;28;20039;-59
2023/04/11 07:18:20;;;;;;;10.43;2.10;;;7.70;99.90;;;;;;5114079;28;20118;-62
2023/04/11 07:20:47;;;;;;;8.90;2.22;;;7.80;99.90;;;;;;5113113;28;20039;-60
2023/04/11 07:23:14;;;;;;;8.07;1.85;;;7.80;99.90;;;;;;5113514;28;20063;-59
2023/04/11 07:25:41;;;;;;;10.82;1.73;;;7.90;99.90;;;;;;5113292;28;20457;-62
2023/04/11 07:28:08;;;;;;;12.02;2.03;;;8.00;99.90;;;;;;5113405;28;20374;-59
2023/04/11 07:30:35;;;;;;;7.47;1.85;;;8.00;99.90;;;;;;5111872;28;20051;-59
2023/04/11 07:33:02;;;;;;;13.73;2.30;;;8.10;99.90;;;;;;5113356;28;20059;-59
2023/04/11 07:35:29;;;;;;;13.20;1.83;;;8.20;99.90;;;;;;5113236;28;20054;-59
2023/04/11 07:37:57;;;;;;;11.20;2.20;;;8.20;99.90;;;;;;5113121;28;20073;-59
2023/04/11 07:40:23;;;;;;;10.15;1.90;;;8.20;99.90;;;;;;5114021;28;20059;-59
2023/04/11 07:42:50;;;;;;;12.60;2.08;;;8.30;99.90;;;;;;5117173;28;20451;-60
2023/04/11 07:45:17;;;;;;;13.00;1.80;;;8.40;99.90;;;;;;5117004;28;20131;-60
2023/04/11 07:47:44;;;;;;;7.80;1.55;;;8.40;99.90;;;;;;5115806;28;20110;-57
2023/04/11 07:50:10;;;;;;;9.18;1.90;;;8.50;99.90;;;;;;5116839;28;20048;-61
2023/04/11 07:52:37;;;;;;;9.00;2.03;;;8.50;99.90;;;;;;5117214;28;20096;-60
2023/04/11 07:55:04;;;;;;;8.88;1.67;;;8.60;99.90;;;;;;5117558;28;20126;-61
2023/04/11 07:57:31;;;;;;;14.38;2.17;;;8.60;99.90;;;;;;5117676;28;20396;-61
2023/04/11 07:59:57;;;;;;;12.68;2.08;;;8.60;99.90;;;;;;5116723;28;20071;-61
2023/04/11 08:02:24;;;;;;;12.90;2.45;;;8.70;99.90;;;;;;5117268;28;20043;-61
2023/04/11 08:04:51;;;;;;;15.35;2.20;;;8.70;99.90;;;;;;5117215;28;20078;-61
2023/04/11 08:07:18;;;;;;;9.82;2.08;;;8.70;99.90;;;;;;5117141;28;20446;-62
2023/04/11 08:09:45;;;;;;;9.48;2.38;;;8.80;99.90;;;;;;5115619;28;20036;-61
2023/04/11 08:12:11;;;;;;;12.60;2.03;;;8.80;99.90;;;;;;5117105;28;20101;-61
2023/04/11 08:14:38;;;;;;;15.50;2.33;;;8.80;99.90;;;;;;5116475;28;20063;-60
2023/04/11 08:17:06;;;;;;;13.82;1.90;;;8.90;99.90;;;;;;5116818;28;20039;-61
2023/04/11 08:19:50;;;;;;;14.88;2.75;;;8.90;99.90;;;;;;5117019;28;20130;-61
2023/04/11 08:22:17;;;;;;;12.57;2.20;;;9.00;99.90;;;;;;5116391;28;20127;-60
2023/04/11 08:24:44;;;;;;;13.80;2.60;;;9.00;99.90;;;;;;5116754;28;20043;-61
2023/04/11 08:27:11;;;;;;;14.60;2.22;;;9.10;99.90;;;;;;5116491;28;20046;-62
2023/04/11 08:29:38;;;;;;;9.68;2.20;;;9.10;99.90;;;;;;5116546;28;20036;-61
2023/04/11 08:32:05;;;;;;;9.40;1.90;;;9.10;99.90;;;;;;5116567;28;20118;-58
2023/04/11 08:34:32;;;;;;;12.80;2.13;;;9.20;99.90;;;;;;5115494;28;20044;-59
2023/04/11 08:36:58;;;;;;;9.90;1.98;;;9.20;99.90;;;;;;5107347;28;20040;-61
2023/04/11 08:39:25;;;;;;;8.38;2.30;;;9.30;99.90;;;;;;5096137;28;20040;-60
2023/04/11 08:41:52;;;;;;;14.85;2.55;;;9.40;99.90;;;;;;5100700;28;20127;-62
2023/04/11 08:44:20;;;;;;;11.50;2.20;;;9.40;99.90;;;;;;5114285;28;20040;-62
2023/04/11 08:46:46;;;;;;;11.00;2.00;;;9.50;99.90;;;;;;5115355;27;20127;-59
2023/04/11 08:49:13;;;;;;;12.93;2.22;;;9.50;99.90;;;;;;5111675;28;20475;-60
2023/04/11 08:51:40;;;;;;;10.10;2.00;;;9.50;99.90;;;;;;5114980;28;20454;-60
2023/04/11 08:54:07;;;;;;;12.43;2.10;;;9.60;99.90;;;;;;5115531;28;20032;-60
2023/04/11 08:56:34;;;;;;;11.60;1.75;;;9.60;99.90;;;;;;5115261;28;20040;-61
2023/04/11 08:59:01;;;;;;;11.85;1.80;;;9.70;99.90;;;;;;5115266;28;20048;-60
2023/04/11 09:01:28;;;;;;;13.02;2.38;;;9.70;99.90;;;;;;5115110;28;20044;-61
2023/04/11 09:03:54;;;;;;;10.35;1.92;;;9.80;99.90;;;;;;5114979;28;20371;-60
2023/04/11 09:06:22;;;;;;;16.90;2.25;;;9.90;99.90;;;;;;5114887;28;20051;-61
2023/04/11 09:08:48;;;;;;;9.55;1.92;;;10.00;99.90;;;;;;5114958;27;20046;-60
2023/04/11 09:11:15;;;;;;;8.80;1.95;;;10.00;99.90;;;;;;5110906;28;20078;-60
2023/04/11 09:13:42;;;;;;;11.70;2.13;;;10.10;99.90;;;;;;5111803;28;20043;-58
2023/04/11 09:16:09;;;;;;;9.63;2.75;;;10.10;99.90;;;;;;5114788;28;20089;-61
2023/04/11 09:18:36;;;;;;;9.70;1.65;;;10.20;99.90;;;;;;5114986;28;20048;-62
2023/04/11 09:21:02;;;;;;;12.73;2.00;;;10.30;99.90;;;;;;5114912;28;20048;-61
2023/04/11 09:23:29;;;;;;;10.68;1.73;;;10.40;99.90;;;;;;5114920;28;20067;-61
2023/04/11 09:25:56;;;;;;;13.27;2.00;;;10.40;99.90;;;;;;5114825;28;20071;-61
2023/04/11 09:28:23;;;;;;;9.13;1.55;;;10.50;99.90;;;;;;5112467;28;20064;-61
2023/04/11 09:30:50;;;;;;;7.50;1.55;;;10.50;99.90;;;;;;5113317;28;20049;-61
2023/04/11 09:33:17;;;;;;;9.98;1.70;;;10.60;99.90;;;;;;5111979;28;20055;-61
2023/04/11 09:35:43;;;;;;;10.25;1.80;;;10.70;99.90;;;;;;5114275;28;20127;-60
2023/04/11 09:38:10;;;;;;;9.30;1.88;;;10.90;99.90;;;;;;5114148;28;20374;-60
2023/04/11 09:40:37;;;;;;;12.55;2.25;;;11.00;99.90;;;;;;5108070;28;20102;-62
2023/04/11 09:43:03;;;;;;;10.68;2.00;;;11.10;99.90;;;;;;5114583;28;20512;-60
2023/04/11 09:45:30;;;;;;;9.13;1.92;;;11.20;99.90;;;;;;5114209;28;20071;-61
2023/04/11 09:48:09;;;;;;;7.30;1.95;;;11.20;99.90;;;;;;5109157;28;20132;-61
2023/04/11 09:50:37;;;;;;;11.18;2.13;;;11.30;99.90;;;;;;5113016;28;20101;-60
2023/04/11 09:53:04;;;;;;;11.30;1.98;;;11.40;99.90;;;;;;5113029;28;20429;-60
2023/04/11 09:55:30;;;;;;;12.05;2.22;;;11.60;99.90;;;;;;5112943;28;20039;-61
2023/04/11 09:57:57;;;;;;;13.60;2.22;;;11.80;99.90;;;;;;5112946;28;20058;-61
2023/04/11 10:00:27;;;;;;;13.15;3.15;;;11.90;99.90;;;;;;5111546;28;20039;-60
2023/04/11 10:02:54;;;;;;;9.07;1.73;;;11.90;99.90;;;;;;5113814;28;20558;-61
2023/04/11 10:05:24;;;;;;;10.15;2.00;;;12.10;99.90;;;;;;5113835;28;20105;-61
2023/04/11 10:07:51;;;;;;;9.10;1.50;;;12.10;99.90;;;;;;5114088;28;20478;-61
2023/04/11 10:10:19;;;;;;;6.80;1.70;;;12.30;99.90;;;;;;5113968;28;20048;-59
2023/04/11 10:12:45;;;;;;;6.65;1.30;;;12.50;99.90;;;;;;5113960;28;20340;-60
2023/04/11 10:15:12;;;;;;;8.23;1.90;;;12.50;98.70;;;;;;5113947;28;20044;-61
2023/04/11 10:17:42;;;;;;;8.20;1.60;;;12.50;99.20;;;;;;5113775;28;20387;-60
2023/04/11 10:20:09;;;;;;;8.27;1.42;;;12.40;99.00;;;;;;5113661;28;20208;-60
2023/04/11 10:22:35;;;;;;;9.25;2.03;;;12.40;98.80;;;;;;5113541;28;20043;-60
2023/04/11 10:25:02;;;;;;;7.95;1.88;;;12.40;99.00;;;;;;5112396;28;20448;-60
2023/04/11 10:27:29;;;;;;;7.55;1.60;;;12.50;98.70;;;;;;5113594;28;20094;-61
2023/04/11 10:29:56;;;;;;;6.65;1.40;;;12.50;98.80;;;;;;5113398;28;20510;-60
2023/04/11 10:32:23;;;;;;;8.43;1.67;;;12.40;98.10;;;;;;5113485;28;20066;-59
2023/04/11 10:34:50;;;;;;;6.55;1.50;;;12.30;98.90;;;;;;5113280;28;20032;-61
2023/04/11 10:37:16;;;;;;;5.78;1.33;;;12.20;98.30;;;;;;5113641;28;20111;-60
2023/04/11 10:39:43;;;;;;;7.30;1.70;;;12.20;98.70;;;;;;5113514;28;20043;-60
2023/04/11 10:42:10;;;;;;;7.68;1.80;;;12.10;98.10;;;;;;5113206;28;20070;-60
2023/04/11 10:44:36;;;;;;;8.68;1.50;;;12.00;98.80;;;;;;5113137;28;20089;-60
2023/04/11 10:47:03;;;;;;;9.75;1.50;;;11.90;98.80;;;;;;5111944;28;20043;-61
2023/04/11 10:49:31;;;;;;;5.78;1.98;;;11.80;99.10;;;;;;5113040;28;20112;-61
2023/04/11 10:51:57;;;;;;;5.65;1.30;;;11.80;99.20;;;;;;5113245;28;20518;-61
2023/04/11 10:54:24;;;;;;;10.18;1.50;;;11.90;99.30;;;;;;5113398;28;20048;-59
2023/04/11 10:56:51;;;;;;;8.18;1.60;;;12.00;99.30;;;;;;5113246;28;20398;-60
2023/04/11 10:59:18;;;;;;;9.95;1.98;;;12.10;99.00;;;;;;5113016;28;20065;-61
2023/04/11 11:01:44;;;;;;;9.05;1.92;;;12.30;99.30;;;;;;5113504;28;20558;-60
2023/04/11 11:04:14;;;;;;;8.07;2.08;;;12.40;99.20;;;;;;5113118;28;20039;-59
2023/04/11 11:06:41;;;;;;;9.15;1.60;;;12.50;98.50;;;;;;5098050;28;20072;-61
2023/04/11 11:09:16;;;;;;;7.53;1.63;;;12.60;98.80;;;;;;5093790;28;20072;-60
2023/04/11 11:11:43;;;;;;;6.25;1.33;;;12.70;97.90;;;;;;5093656;28;20040;-61
2023/04/11 11:14:10;;;;;;;9.32;1.92;;;12.70;98.40;;;;;;5093702;28;20865;-61
2023/04/11 11:16:36;;;;;;;7.30;1.40;;;12.90;98.30;;;;;;5097559;28;20051;-61
2023/04/11 11:19:05;;;;;;;7.82;1.67;;;13.00;97.90;;;;;;5116717;28;20097;-60
2023/04/11 11:21:33;;;;;;;6.28;1.73;;;13.00;97.80;;;;;;5117273;28;20100;-61
2023/04/11 11:24:00;;;;;;;18.23;1.90;;;13.00;97.30;;;;;;5117116;28;20525;-61
2023/04/11 11:26:27;;;;;;;7.22;1.50;;;13.10;97.40;;;;;;5117009;28;20050;-61
2023/04/11 11:28:53;;;;;;;8.30;2.10;;;13.10;97.50;;;;;;5115759;28;20043;-60
2023/04/11 11:31:20;;;;;;;8.05;1.80;;;13.00;97.90;;;;;;5116704;28;20134;-60
2023/04/11 11:33:47;;;;;;;24.27;2.40;;;13.10;98.00;;;;;;5116407;28;20062;-60
2023/04/11 11:36:14;;;;;;;211.35;18.35;;;13.20;98.30;;;;;;5107713;28;20028;-60
2023/04/11 11:38:41;;;;;;;16.25;4.80;;;13.30;98.20;;;;;;5097479;28;20123;-60
2023/04/11 11:41:08;;;;;;;21.00;3.85;;;13.40;98.20;;;;;;5112070;28;20039;-61
2023/04/11 11:43:35;;;;;;;11.77;2.38;;;13.50;98.20;;;;;;5116787;28;20071;-60
2023/04/11 11:46:01;;;;;;;11.10;2.65;;;13.60;97.60;;;;;;5116472;28;20047;-61
2023/04/11 11:48:31;;;;;;;10.50;1.70;;;13.60;98.00;;;;;;5116324;28;20060;-60
2023/04/11 11:50:57;;;;;;;24.00;2.88;;;13.50;97.90;;;;;;5116364;28;20078;-61
2023/04/11 11:53:25;;;;;;;29.65;3.60;;;13.50;97.70;;;;;;5116352;28;20116;-60
2023/04/11 11:55:52;;;;;;;33.55;5.40;;;13.60;97.90;;;;;;5113543;28;21334;-62
2023/04/11 11:58:19;;;;;;;33.75;4.88;;;13.50;98.00;;;;;;5116473;28;20480;-61
2023/04/11 12:00:45;;;;;;;39.10;5.97;;;13.60;98.10;;;;;;5116058;28;20551;-59
2023/04/11 12:03:12;;;;;;;33.70;4.80;;;13.60;98.00;;;;;;5116248;28;20039;-62
2023/04/11 12:05:39;;;;;;;18.55;3.10;;;13.60;97.80;;;;;;5110355;28;20051;-62
2023/04/11 12:08:07;;;;;;;41.88;5.25;;;13.60;97.50;;;;;;5116065;28;20039;-61
2023/04/11 12:10:34;;;;;;;18.92;4.18;;;13.60;98.10;;;;;;5116040;28;20031;-61
2023/04/11 12:13:01;;;;;;;12.95;2.67;;;13.70;98.70;;;;;;5116091;28;20460;-61
2023/04/11 12:15:28;;;;;;;13.40;2.55;;;13.80;98.40;;;;;;5116106;28;20390;-62
2023/04/11 12:17:55;;;;;;;19.80;3.50;;;13.80;98.00;;;;;;5115148;28;20039;-61
2023/04/11 12:20:22;;;;;;;17.27;3.05;;;13.90;98.40;;;;;;5112359;28;20375;-60
2023/04/11 12:22:49;;;;;;;11.00;3.05;;;14.00;98.30;;;;;;5114849;28;20093;-61
2023/04/11 12:25:19;;;;;;;18.70;4.20;;;14.10;99.10;;;;;;5114866;28;20176;-60
2023/04/11 12:27:46;;;;;;;12.82;2.72;;;14.20;99.30;;;;;;5112075;28;20402;-60
2023/04/11 12:30:15;;;;;;;15.88;2.95;;;14.10;98.70;;;;;;5115838;28;20390;-61
2023/04/11 12:32:42;;;;;;;12.52;2.47;;;14.10;98.90;;;;;;5116133;28;20439;-59
2023/04/11 12:35:09;;;;;;;15.15;3.33;;;13.90;99.30;;;;;;5110861;28;20131;-61
2023/04/11 12:37:36;;;;;;;18.27;2.70;;;13.80;99.70;;;;;;5115935;28;20398;-59
2023/04/11 12:40:09;;;;;;;11.63;2.75;;;13.60;99.90;;;;;;5106294;28;20040;-62
2023/04/11 12:42:37;;;;;;;11.55;2.17;;;13.50;99.90;;;;;;5095377;28;20093;-59
2023/04/11 12:45:21;;;;;;;8.27;2.10;;;13.50;99.90;;;;;;5101862;28;20044;-62
2023/04/11 12:47:47;;;;;;;19.13;3.08;;;13.50;99.60;;;;;;5095398;28;20555;-60